Time;durP1;ratioP1;P1;durP2;ratioP2;P2;SDS_P1;SDS_P2;PMS_P1;PMS_P2;Temp;Humidity;BMP_temperature;BMP_pressure;BME280_temperature;BME280_humidity;BME280_pressure;Samples;Min_cycle;Max_cycle;Signal;HPM_P1;HPM_P2
2023/09/29 00:00:48;;;;;;;9.45;7.00;;;18.10;99.90;;;;;;5108292;28;20032;-69
2023/09/29 00:03:15;;;;;;;8.35;7.05;;;18.10;99.90;;;;;;5106304;28;20586;-68
2023/09/29 00:05:43;;;;;;;8.55;6.50;;;18.00;99.90;;;;;;5108055;28;20071;-69
2023/09/29 00:08:16;;;;;;;8.73;6.38;;;18.00;99.90;;;;;;5107516;28;20027;-69
2023/09/29 00:10:43;;;;;;;8.13;6.55;;;18.00;99.90;;;;;;5103673;28;20044;-69
2023/09/29 00:13:09;;;;;;;9.90;7.25;;;18.00;99.90;;;;;;5104287;28;20027;-68
2023/09/29 00:15:34;;;;;;;9.48;6.97;;;17.90;99.90;;;;;;5105439;28;20131;-68
2023/09/29 00:18:00;;;;;;;8.15;6.28;;;17.90;99.90;;;;;;5102781;28;20031;-69
2023/09/29 00:20:26;;;;;;;8.45;6.50;;;17.90;99.90;;;;;;5107938;28;20510;-69
2023/09/29 00:22:57;;;;;;;9.95;6.72;;;17.90;99.90;;;;;;5107316;28;20035;-68
2023/09/29 00:25:23;;;;;;;10.77;6.05;;;17.90;99.90;;;;;;5106692;28;20067;-68
2023/09/29 00:27:50;;;;;;;9.18;7.10;;;17.90;99.90;;;;;;5105906;28;20031;-69
2023/09/29 00:30:17;;;;;;;8.27;6.60;;;17.90;99.90;;;;;;5105033;28;20024;-69
2023/09/29 00:32:45;;;;;;;11.43;6.68;;;17.90;99.90;;;;;;5102522;28;20539;-68
2023/09/29 00:35:11;;;;;;;10.43;6.82;;;17.80;99.90;;;;;;5107261;28;20141;-69
2023/09/29 00:37:37;;;;;;;8.13;6.47;;;17.90;99.90;;;;;;5107467;28;20019;-69
2023/09/29 00:40:12;;;;;;;8.88;6.68;;;17.80;99.90;;;;;;5105769;28;20126;-69
2023/09/29 00:42:38;;;;;;;7.68;6.88;;;17.80;99.90;;;;;;5106914;27;20847;-68
2023/09/29 00:45:06;;;;;;;8.18;6.32;;;17.90;99.90;;;;;;5105628;28;20024;-68
2023/09/29 00:47:32;;;;;;;9.80;6.95;;;17.80;99.90;;;;;;5099535;28;20057;-68
2023/09/29 00:49:58;;;;;;;10.85;7.55;;;17.80;99.90;;;;;;5105206;28;20056;-69
2023/09/29 00:52:27;;;;;;;13.05;6.60;;;17.80;99.90;;;;;;5106916;28;20027;-69
2023/09/29 00:54:53;;;;;;;10.25;6.97;;;17.80;99.90;;;;;;5102524;28;20038;-68
2023/09/29 00:57:20;;;;;;;8.27;6.22;;;17.80;99.90;;;;;;5099770;28;20107;-69
2023/09/29 00:59:46;;;;;;;7.75;6.47;;;17.80;99.90;;;;;;5102739;28;20031;-68
2023/09/29 01:02:17;;;;;;;8.98;6.60;;;17.80;99.90;;;;;;5105277;28;20035;-69
2023/09/29 01:04:48;;;;;;;10.25;6.93;;;17.80;99.90;;;;;;5104957;28;20047;-69
2023/09/29 01:07:15;;;;;;;7.63;6.40;;;17.80;99.90;;;;;;5104612;28;20054;-69
2023/09/29 01:09:41;;;;;;;10.60;7.13;;;17.90;99.90;;;;;;5104061;28;20071;-69
2023/09/29 01:12:10;;;;;;;10.60;7.22;;;17.90;99.90;;;;;;5104950;28;20110;-69
2023/09/29 01:14:36;;;;;;;8.68;6.70;;;17.90;99.90;;;;;;5104523;28;20632;-69
2023/09/29 01:17:02;;;;;;;9.20;6.15;;;17.90;99.90;;;;;;5104912;28;20023;-69
2023/09/29 01:19:30;;;;;;;7.95;6.72;;;17.90;99.90;;;;;;5101964;28;20027;-69
2023/09/29 01:21:56;;;;;;;9.43;6.45;;;17.90;99.90;;;;;;5101659;28;20036;-69
2023/09/29 01:24:22;;;;;;;11.30;6.45;;;17.90;99.90;;;;;;5102071;28;20249;-69
2023/09/29 01:26:49;;;;;;;8.73;6.22;;;17.90;99.90;;;;;;5105099;28;20028;-69
2023/09/29 01:29:15;;;;;;;14.13;6.05;;;18.00;99.90;;;;;;5106471;28;20031;-69
2023/09/29 01:31:44;;;;;;;7.47;5.53;;;18.00;99.90;;;;;;5105561;28;20031;-68
2023/09/29 01:34:09;;;;;;;11.90;5.57;;;17.90;99.90;;;;;;5105692;28;20026;-68
2023/09/29 01:36:35;;;;;;;8.23;5.75;;;17.90;99.90;;;;;;5104257;28;20035;-69
2023/09/29 01:39:01;;;;;;;11.18;6.47;;;18.00;99.90;;;;;;5105859;28;20076;-69
2023/09/29 01:41:29;;;;;;;8.20;5.55;;;18.00;99.90;;;;;;5101248;28;20062;-69
2023/09/29 01:43:55;;;;;;;7.85;5.43;;;18.00;99.90;;;;;;5101812;28;20859;-69
2023/09/29 01:46:22;;;;;;;9.13;5.82;;;18.00;99.90;;;;;;5103679;28;20023;-69
2023/09/29 01:48:47;;;;;;;6.93;5.50;;;18.00;99.90;;;;;;5101297;28;20035;-68
2023/09/29 01:51:13;;;;;;;5.68;5.07;;;17.90;99.90;;;;;;5099684;28;20039;-69
2023/09/29 01:53:39;;;;;;;9.40;5.93;;;17.90;99.90;;;;;;5104323;28;20058;-68
2023/09/29 01:56:05;;;;;;;8.13;5.78;;;17.90;99.90;;;;;;5104535;28;20619;-69
2023/09/29 01:58:31;;;;;;;7.55;5.32;;;17.90;99.90;;;;;;5101745;28;20058;-69
2023/09/29 02:00:57;;;;;;;10.13;6.03;;;17.90;99.90;;;;;;5104150;28;20055;-69
2023/09/29 02:03:24;;;;;;;8.55;6.18;;;17.90;99.90;;;;;;5105602;28;20107;-68
2023/09/29 02:05:50;;;;;;;7.88;5.90;;;17.80;99.90;;;;;;5103942;28;20096;-68
2023/09/29 02:08:18;;;;;;;11.02;5.57;;;17.80;99.90;;;;;;5102555;28;20178;-68
2023/09/29 02:10:48;;;;;;;8.65;6.00;;;17.80;99.90;;;;;;5102411;28;20130;-68
2023/09/29 02:13:15;;;;;;;7.57;5.50;;;17.80;99.90;;;;;;5104180;28;20114;-69
2023/09/29 02:15:41;;;;;;;8.85;6.00;;;17.70;99.90;;;;;;5103835;28;20142;-69
2023/09/29 02:18:09;;;;;;;8.05;6.03;;;17.70;99.90;;;;;;5103869;28;20551;-69
2023/09/29 02:20:38;;;;;;;9.07;5.88;;;17.70;99.90;;;;;;5100250;28;20028;-69
2023/09/29 02:23:05;;;;;;;12.02;6.40;;;17.70;99.90;;;;;;5101466;28;20066;-69
2023/09/29 02:25:32;;;;;;;8.40;6.60;;;17.70;99.90;;;;;;5104026;28;20034;-68
2023/09/29 02:28:00;;;;;;;7.43;6.10;;;17.60;99.90;;;;;;5100899;28;20024;-69
2023/09/29 02:30:27;;;;;;;8.50;6.65;;;17.60;99.90;;;;;;5103740;28;20491;-69
2023/09/29 02:32:53;;;;;;;7.90;6.05;;;17.60;99.90;;;;;;5102383;28;20161;-69
2023/09/29 02:35:20;;;;;;;9.23;6.13;;;17.50;99.90;;;;;;5104637;28;20478;-68
2023/09/29 02:37:46;;;;;;;9.90;6.53;;;17.50;99.90;;;;;;5097492;28;20685;-68
2023/09/29 02:40:13;;;;;;;9.65;6.85;;;17.50;99.90;;;;;;5103056;28;20046;-69
2023/09/29 02:42:39;;;;;;;9.23;6.93;;;17.50;99.90;;;;;;5104042;28;20173;-69
2023/09/29 02:45:06;;;;;;;10.15;6.65;;;17.50;99.90;;;;;;5101300;28;20035;-68
2023/09/29 02:47:32;;;;;;;10.50;6.55;;;17.50;99.90;;;;;;5102312;28;20036;-69
2023/09/29 02:49:58;;;;;;;8.68;6.07;;;17.50;99.90;;;;;;5103197;28;20584;-68
2023/09/29 02:52:26;;;;;;;8.98;6.25;;;17.40;99.90;;;;;;5103884;28;20031;-68
2023/09/29 02:54:53;;;;;;;8.95;6.70;;;17.40;99.90;;;;;;5105020;28;20035;-69
2023/09/29 02:57:20;;;;;;;7.60;5.85;;;17.40;99.90;;;;;;5103594;28;20134;-69
2023/09/29 02:59:47;;;;;;;9.40;6.25;;;17.40;99.90;;;;;;5105021;28;20031;-69
2023/09/29 03:02:12;;;;;;;6.95;5.85;;;17.40;99.90;;;;;;5105206;28;20031;-69
2023/09/29 03:04:39;;;;;;;7.03;5.82;;;17.30;99.90;;;;;;5103840;28;20032;-69
2023/09/29 03:07:09;;;;;;;8.20;6.28;;;17.30;99.90;;;;;;5108915;28;20081;-69
2023/09/29 03:09:36;;;;;;;9.23;6.15;;;17.30;99.90;;;;;;5106468;28;20137;-69
2023/09/29 03:12:01;;;;;;;9.38;5.55;;;17.30;99.90;;;;;;5100563;28;20051;-69
2023/09/29 03:14:27;;;;;;;9.95;6.00;;;17.30;99.90;;;;;;5107332;28;20506;-68
2023/09/29 03:17:00;;;;;;;8.43;5.78;;;17.20;99.90;;;;;;5107413;28;20043;-68
2023/09/29 03:19:27;;;;;;;10.45;6.15;;;17.20;99.90;;;;;;5104199;28;20108;-69
2023/09/29 03:21:53;;;;;;;8.25;6.25;;;17.20;99.90;;;;;;5105577;28;20264;-69
2023/09/29 03:24:19;;;;;;;8.00;5.97;;;17.20;99.90;;;;;;5105750;28;20035;-68
2023/09/29 03:26:45;;;;;;;8.48;5.90;;;17.10;99.90;;;;;;5104291;28;20030;-68
2023/09/29 03:29:11;;;;;;;9.73;5.70;;;17.10;99.90;;;;;;5107091;28;20020;-69
2023/09/29 03:31:36;;;;;;;8.25;5.93;;;17.10;99.90;;;;;;5108509;28;20042;-68
2023/09/29 03:34:02;;;;;;;9.18;6.22;;;17.00;99.90;;;;;;5105438;28;20024;-69
2023/09/29 03:36:30;;;;;;;8.55;5.82;;;17.00;99.90;;;;;;5108638;28;20027;-68
2023/09/29 03:38:56;;;;;;;9.13;5.57;;;17.00;99.90;;;;;;5108458;28;20031;-69
2023/09/29 03:41:25;;;;;;;7.50;5.50;;;17.10;99.90;;;;;;5107936;28;20467;-69
2023/09/29 03:43:51;;;;;;;7.03;5.72;;;17.00;99.90;;;;;;5108286;28;20143;-69
2023/09/29 03:46:19;;;;;;;8.00;5.70;;;17.10;99.90;;;;;;5108284;27;20023;-69
2023/09/29 03:48:47;;;;;;;8.45;5.70;;;17.00;99.90;;;;;;5106767;28;20032;-69
2023/09/29 03:51:21;;;;;;;8.45;5.53;;;17.00;99.90;;;;;;5100024;28;20479;-68
2023/09/29 03:53:48;;;;;;;7.38;5.65;;;17.00;99.90;;;;;;5107912;28;20727;-68
2023/09/29 03:56:14;;;;;;;6.50;5.18;;;16.90;99.90;;;;;;5095065;28;20043;-68
2023/09/29 03:58:40;;;;;;;8.23;5.82;;;16.90;99.90;;;;;;5106409;28;20066;-69
2023/09/29 04:01:06;;;;;;;9.32;5.53;;;16.90;99.90;;;;;;5108258;28;20028;-69
2023/09/29 04:03:32;;;;;;;7.72;6.10;;;16.90;99.90;;;;;;5108046;28;20498;-69
2023/09/29 04:05:57;;;;;;;8.20;5.55;;;16.80;99.90;;;;;;5107988;28;20095;-68
2023/09/29 04:08:23;;;;;;;8.13;5.35;;;16.80;99.90;;;;;;5107308;28;20905;-69
2023/09/29 04:10:49;;;;;;;8.10;5.38;;;16.80;99.90;;;;;;5105694;28;20052;-69
2023/09/29 04:13:15;;;;;;;8.85;5.35;;;16.80;99.90;;;;;;5106540;28;20024;-68
2023/09/29 04:15:43;;;;;;;14.93;6.30;;;16.80;99.90;;;;;;5103661;28;20101;-69
2023/09/29 04:18:09;;;;;;;8.93;5.32;;;16.80;99.90;;;;;;5105906;28;20535;-68
2023/09/29 04:20:34;;;;;;;11.15;5.88;;;16.80;99.90;;;;;;5100274;28;20114;-69
2023/09/29 04:23:00;;;;;;;6.70;5.50;;;16.80;99.90;;;;;;5106380;28;20063;-68
2023/09/29 04:25:26;;;;;;;6.95;5.13;;;16.70;99.90;;;;;;5106236;28;20035;-69
2023/09/29 04:27:52;;;;;;;7.43;5.30;;;16.80;99.90;;;;;;5107529;28;20036;-68
2023/09/29 04:30:17;;;;;;;6.85;5.45;;;16.70;99.90;;;;;;5104887;28;20031;-69
2023/09/29 04:32:46;;;;;;;8.23;5.70;;;16.70;99.90;;;;;;5105392;28;20034;-69
2023/09/29 04:35:12;;;;;;;7.68;5.47;;;16.70;99.90;;;;;;5106329;28;20028;-68
2023/09/29 04:37:38;;;;;;;9.80;5.97;;;16.60;99.90;;;;;;5103831;28;20032;-69
2023/09/29 04:40:04;;;;;;;6.00;5.32;;;16.60;99.90;;;;;;5107422;28;20046;-69
2023/09/29 04:42:31;;;;;;;8.25;6.05;;;16.60;99.90;;;;;;5105691;28;20030;-69
2023/09/29 04:44:57;;;;;;;6.93;5.30;;;16.60;99.90;;;;;;5104697;28;20651;-69
2023/09/29 04:47:22;;;;;;;10.77;6.22;;;16.50;99.90;;;;;;5107044;28;20097;-69
2023/09/29 04:49:49;;;;;;;8.32;5.72;;;16.50;99.90;;;;;;5104686;28;20076;-69
2023/09/29 04:52:16;;;;;;;10.85;5.05;;;16.40;99.90;;;;;;5105988;28;20047;-68
2023/09/29 04:54:43;;;;;;;8.23;6.00;;;16.40;99.90;;;;;;5104901;28;20119;-69
2023/09/29 04:57:09;;;;;;;7.05;4.97;;;16.40;99.90;;;;;;5106913;28;20032;-68
2023/09/29 04:59:35;;;;;;;9.43;5.80;;;16.40;99.90;;;;;;5106758;28;20035;-69
2023/09/29 05:02:00;;;;;;;9.25;5.53;;;16.40;99.90;;;;;;5106567;28;20031;-68
2023/09/29 05:04:27;;;;;;;8.82;6.30;;;16.30;99.90;;;;;;5106233;28;20027;-69
2023/09/29 05:06:53;;;;;;;8.25;6.00;;;16.30;99.90;;;;;;5106580;28;20043;-69
2023/09/29 05:09:19;;;;;;;8.95;6.05;;;16.30;99.90;;;;;;5104090;28;20031;-69
2023/09/29 05:11:45;;;;;;;7.80;5.68;;;16.30;99.90;;;;;;5106473;28;20509;-69
2023/09/29 05:14:11;;;;;;;7.75;5.90;;;16.30;99.90;;;;;;5106275;28;20070;-68
2023/09/29 05:16:37;;;;;;;8.55;6.18;;;16.30;99.90;;;;;;5107318;28;20032;-68
2023/09/29 05:19:02;;;;;;;8.82;5.78;;;16.40;99.90;;;;;;5106636;28;20508;-68
2023/09/29 05:21:28;;;;;;;8.18;5.70;;;16.40;99.90;;;;;;5103487;28;20031;-68
2023/09/29 05:23:54;;;;;;;8.77;4.95;;;16.50;99.90;;;;;;5103371;28;20131;-68
2023/09/29 05:26:20;;;;;;;7.95;5.38;;;16.50;99.90;;;;;;5106337;28;20061;-68
2023/09/29 05:28:46;;;;;;;7.75;5.55;;;16.60;99.90;;;;;;5103253;28;20062;-68
2023/09/29 05:31:11;;;;;;;9.07;5.47;;;16.60;99.90;;;;;;5105415;28;20047;-68
2023/09/29 05:33:37;;;;;;;6.82;5.40;;;16.70;99.90;;;;;;5099582;28;20020;-69
2023/09/29 05:36:03;;;;;;;8.82;5.95;;;16.80;99.90;;;;;;5104549;28;20721;-68
2023/09/29 05:38:29;;;;;;;7.28;5.38;;;16.80;99.90;;;;;;5100674;28;20024;-68
2023/09/29 05:40:55;;;;;;;7.72;5.65;;;16.90;99.90;;;;;;5103515;28;20035;-68
2023/09/29 05:43:21;;;;;;;8.40;5.55;;;16.90;99.90;;;;;;5105469;28;20031;-68
2023/09/29 05:45:47;;;;;;;7.65;5.20;;;17.00;99.90;;;;;;5105684;28;20448;-68
2023/09/29 05:48:13;;;;;;;7.95;5.28;;;17.00;99.90;;;;;;5098751;28;20044;-68
2023/09/29 05:50:39;;;;;;;7.45;5.20;;;17.00;99.90;;;;;;5105758;28;20659;-68
2023/09/29 05:53:05;;;;;;;8.00;5.55;;;17.00;99.90;;;;;;5105695;28;20039;-68
2023/09/29 05:55:31;;;;;;;10.13;5.40;;;17.10;99.90;;;;;;5104068;28;20031;-68
2023/09/29 05:57:57;;;;;;;8.27;5.72;;;17.10;99.90;;;;;;5105260;28;20072;-68
2023/09/29 06:00:25;;;;;;;7.15;5.35;;;17.10;99.90;;;;;;5104634;28;20027;-68
2023/09/29 06:02:51;;;;;;;6.95;4.95;;;17.20;99.90;;;;;;5105402;28;20027;-68
2023/09/29 06:05:17;;;;;;;8.45;6.25;;;17.20;99.90;;;;;;5105787;28;20036;-68
2023/09/29 06:07:44;;;;;;;10.02;5.63;;;17.30;99.90;;;;;;5105538;28;20031;-68
2023/09/29 06:10:11;;;;;;;7.50;5.30;;;17.30;99.90;;;;;;5105504;28;20026;-68
2023/09/29 06:12:37;;;;;;;8.57;5.35;;;17.30;99.90;;;;;;5104252;28;20490;-69
2023/09/29 06:15:04;;;;;;;6.72;4.93;;;17.40;99.90;;;;;;5102989;28;20035;-68
2023/09/29 06:17:30;;;;;;;6.35;4.90;;;17.40;99.90;;;;;;5102464;28;20031;-68
2023/09/29 06:19:56;;;;;;;6.30;4.72;;;17.50;99.90;;;;;;5105767;28;20067;-69
2023/09/29 06:22:22;;;;;;;6.97;5.13;;;17.50;99.90;;;;;;5105592;28;20050;-68
2023/09/29 06:24:48;;;;;;;6.43;5.05;;;17.50;99.90;;;;;;5104855;28;20495;-68
2023/09/29 06:27:14;;;;;;;9.43;5.80;;;17.60;99.90;;;;;;5101454;28;20646;-68
2023/09/29 06:29:40;;;;;;;8.50;5.30;;;17.60;99.90;;;;;;5103725;28;20024;-68
2023/09/29 06:32:08;;;;;;;6.97;5.47;;;17.60;99.90;;;;;;5101666;28;20047;-68
2023/09/29 06:34:35;;;;;;;7.63;5.53;;;17.70;99.90;;;;;;5104944;28;20480;-68
2023/09/29 06:37:01;;;;;;;8.18;5.40;;;17.70;99.90;;;;;;5105536;28;20035;-68
2023/09/29 06:39:27;;;;;;;7.03;5.50;;;17.80;99.90;;;;;;5100290;28;20085;-68
2023/09/29 06:41:53;;;;;;;6.88;5.50;;;17.80;99.90;;;;;;5105256;28;20032;-68
2023/09/29 06:44:19;;;;;;;9.18;5.43;;;17.90;99.90;;;;;;5105188;28;20027;-68
2023/09/29 06:46:44;;;;;;;9.15;5.47;;;17.90;99.90;;;;;;5105464;28;20080;-68
2023/09/29 06:49:10;;;;;;;7.10;5.65;;;18.00;99.90;;;;;;5105358;28;20100;-68
2023/09/29 06:51:36;;;;;;;7.53;5.65;;;18.10;99.90;;;;;;5105230;28;20043;-68
2023/09/29 06:54:02;;;;;;;8.27;5.65;;;18.20;99.90;;;;;;5100164;28;20028;-68
2023/09/29 06:56:29;;;;;;;10.07;5.68;;;18.30;99.90;;;;;;5104836;28;20036;-68
2023/09/29 06:58:55;;;;;;;9.15;5.88;;;18.40;99.90;;;;;;5105213;28;20042;-68
2023/09/29 07:01:21;;;;;;;7.78;5.57;;;18.50;99.90;;;;;;5103057;28;20031;-68
2023/09/29 07:03:47;;;;;;;6.88;5.38;;;18.60;99.90;;;;;;5104868;28;20441;-68
2023/09/29 07:06:14;;;;;;;8.93;6.03;;;18.60;99.90;;;;;;5104860;28;20395;-68
2023/09/29 07:08:40;;;;;;;11.00;5.70;;;18.80;99.90;;;;;;5105252;28;20027;-68
2023/09/29 07:11:06;;;;;;;9.07;5.50;;;18.90;99.90;;;;;;5105025;28;20096;-68
2023/09/29 07:13:32;;;;;;;7.72;5.38;;;19.10;99.90;;;;;;5104904;28;20019;-68
2023/09/29 07:15:58;;;;;;;7.15;5.20;;;19.30;99.90;;;;;;5105031;28;20031;-68
2023/09/29 07:18:24;;;;;;;10.32;5.80;;;19.50;99.90;;;;;;5104971;28;20074;-68
2023/09/29 07:20:53;;;;;;;12.18;5.22;;;19.70;99.90;;;;;;5105042;28;20055;-68
2023/09/29 07:23:22;;;;;;;7.25;5.20;;;19.90;99.90;;;;;;5101032;28;20081;-68
2023/09/29 07:25:48;;;;;;;9.70;5.40;;;20.30;99.60;;;;;;5102862;28;20535;-68
2023/09/29 07:28:15;;;;;;;8.68;4.60;;;20.50;99.20;;;;;;5105242;28;20028;-68
2023/09/29 07:30:41;;;;;;;7.80;5.03;;;20.50;98.90;;;;;;5103035;28;20442;-68
2023/09/29 07:33:09;;;;;;;9.80;5.13;;;20.50;98.90;;;;;;5100914;28;20028;-68
2023/09/29 07:35:38;;;;;;;6.40;4.55;;;20.50;98.90;;;;;;5104642;28;20110;-69
2023/09/29 07:38:04;;;;;;;5.72;4.70;;;20.60;99.20;;;;;;5096972;28;20044;-68
2023/09/29 07:40:34;;;;;;;5.47;4.47;;;20.60;99.30;;;;;;5091727;28;20047;-68
2023/09/29 07:43:01;;;;;;;7.32;4.40;;;20.70;99.00;;;;;;5103458;28;20134;-68
2023/09/29 07:45:27;;;;;;;10.90;4.75;;;20.80;98.80;;;;;;5104086;28;20044;-69
2023/09/29 07:47:53;;;;;;;8.50;4.15;;;20.90;98.60;;;;;;5104471;28;20059;-68
2023/09/29 07:50:20;;;;;;;10.15;4.45;;;20.90;98.50;;;;;;5104918;28;20552;-68
2023/09/29 07:52:45;;;;;;;6.80;4.35;;;21.00;98.50;;;;;;5106535;28;20032;-68
2023/09/29 07:55:11;;;;;;;7.22;4.30;;;21.10;98.00;;;;;;5105542;28;20403;-69
2023/09/29 07:57:38;;;;;;;7.88;4.50;;;21.20;97.80;;;;;;5101029;28;20511;-69
2023/09/29 08:00:15;;;;;;;12.30;4.20;;;21.20;97.40;;;;;;5103399;28;20698;-68
2023/09/29 08:02:43;;;;;;;6.60;4.03;;;21.30;97.70;;;;;;5105544;28;20035;-69
2023/09/29 08:05:12;;;;;;;10.60;4.78;;;21.40;97.80;;;;;;5107668;28;20038;-68
2023/09/29 08:07:38;;;;;;;9.13;3.80;;;21.40;97.70;;;;;;5107726;28;20032;-68
2023/09/29 08:10:06;;;;;;;4.57;3.78;;;21.50;97.20;;;;;;5100208;28;20019;-68
2023/09/29 08:12:32;;;;;;;13.65;4.10;;;21.50;97.10;;;;;;5107715;28;20035;-68
2023/09/29 08:14:58;;;;;;;8.40;3.97;;;21.60;97.40;;;;;;5108024;28;20181;-68
2023/09/29 08:17:25;;;;;;;5.55;3.70;;;21.70;97.00;;;;;;5104285;28;20023;-68
2023/09/29 08:19:51;;;;;;;7.40;4.15;;;21.80;96.90;;;;;;5104866;27;20153;-68
2023/09/29 08:22:17;;;;;;;5.00;3.90;;;21.70;97.10;;;;;;5103903;28;20134;-69
2023/09/29 08:24:43;;;;;;;5.50;3.38;;;21.80;96.90;;;;;;5105213;28;20043;-68
2023/09/29 08:27:09;;;;;;;7.22;4.05;;;21.80;96.90;;;;;;5104279;28;20047;-68
2023/09/29 08:29:34;;;;;;;6.85;3.53;;;21.80;97.20;;;;;;5102690;28;20036;-68
2023/09/29 08:32:01;;;;;;;7.55;3.67;;;21.80;97.00;;;;;;5107402;28;20078;-68
2023/09/29 08:34:29;;;;;;;8.23;4.07;;;21.80;96.90;;;;;;5102011;28;20142;-68
2023/09/29 08:36:55;;;;;;;3.95;3.30;;;21.80;96.90;;;;;;5107098;28;20706;-68
2023/09/29 08:39:20;;;;;;;3.65;3.13;;;21.70;97.00;;;;;;5106933;28;20019;-69
2023/09/29 08:41:55;;;;;;;5.90;3.75;;;21.80;97.10;;;;;;5103537;28;20035;-69
2023/09/29 08:44:24;;;;;;;4.00;3.00;;;21.80;97.30;;;;;;5100477;28;20028;-69
2023/09/29 08:46:52;;;;;;;4.88;3.42;;;21.80;97.20;;;;;;5106883;28;20034;-68
2023/09/29 08:49:20;;;;;;;8.57;3.72;;;21.80;97.30;;;;;;5107366;28;20083;-69
2023/09/29 08:51:47;;;;;;;6.10;3.83;;;21.80;97.50;;;;;;5088302;28;20019;-68
2023/09/29 08:54:16;;;;;;;3.83;3.28;;;21.80;97.50;;;;;;5098833;28;20034;-68
2023/09/29 08:56:42;;;;;;;5.25;3.47;;;21.80;97.60;;;;;;5104774;28;20047;-68
2023/09/29 08:59:08;;;;;;;7.85;4.50;;;21.90;97.20;;;;;;5106527;28;20057;-68
2023/09/29 09:01:34;;;;;;;4.60;3.85;;;21.90;97.20;;;;;;5106767;28;20580;-69
2023/09/29 09:04:00;;;;;;;7.45;3.50;;;21.90;97.10;;;;;;5101925;28;20079;-68
2023/09/29 09:06:27;;;;;;;6.90;3.90;;;21.90;97.30;;;;;;5106286;28;20035;-68
2023/09/29 09:08:54;;;;;;;7.53;4.07;;;22.00;97.30;;;;;;5106261;28;20400;-69
2023/09/29 09:11:21;;;;;;;6.10;3.60;;;22.00;97.40;;;;;;5105927;28;20479;-69
2023/09/29 09:13:58;;;;;;;6.50;4.10;;;22.00;97.60;;;;;;5099815;28;20077;-69
2023/09/29 09:16:28;;;;;;;4.70;3.45;;;22.00;97.70;;;;;;5106503;28;20028;-69
2023/09/29 09:18:54;;;;;;;6.53;3.58;;;22.00;97.60;;;;;;5102999;28;20036;-68
2023/09/29 09:21:31;;;;;;;4.28;3.13;;;22.10;97.60;;;;;;5106071;28;20071;-69
2023/09/29 09:23:57;;;;;;;5.38;3.20;;;22.10;97.70;;;;;;5098897;28;20115;-68
2023/09/29 09:26:27;;;;;;;3.97;3.58;;;22.10;97.80;;;;;;5104297;28;20127;-68
2023/09/29 09:28:53;;;;;;;4.47;3.63;;;22.10;97.90;;;;;;5102125;28;20039;-69
2023/09/29 09:31:18;;;;;;;7.22;3.92;;;22.10;98.00;;;;;;5101647;28;20023;-69
2023/09/29 09:33:51;;;;;;;5.15;3.90;;;22.10;97.90;;;;;;5105615;28;20525;-69
2023/09/29 09:36:17;;;;;;;5.95;3.85;;;22.20;98.20;;;;;;5106161;28;20380;-68
2023/09/29 09:38:43;;;;;;;5.30;3.63;;;22.20;98.20;;;;;;5103025;28;20088;-68
2023/09/29 09:41:10;;;;;;;6.68;3.88;;;22.10;98.30;;;;;;5105855;28;20031;-69
2023/09/29 09:43:37;;;;;;;6.00;4.03;;;22.20;97.40;;;;;;5105753;28;20031;-69
2023/09/29 09:46:06;;;;;;;7.07;3.88;;;22.30;97.30;;;;;;5105236;28;20035;-69
2023/09/29 09:49:07;;;;;;;4.70;3.47;;;22.40;97.40;;;;;;5096451;28;20027;-69
2023/09/29 09:51:41;;;;;;;6.22;3.65;;;22.50;97.10;;;;;;5097049;28;20040;-69
2023/09/29 09:54:08;;;;;;;7.65;3.90;;;22.70;97.10;;;;;;5103817;28;20027;-69
2023/09/29 09:56:55;;;;;;;4.03;3.63;;;22.90;97.10;;;;;;5100743;28;20043;-69
2023/09/29 09:59:22;;;;;;;6.63;3.63;;;23.00;95.90;;;;;;5099492;28;20387;-69
2023/09/29 10:01:51;;;;;;;4.90;3.40;;;23.10;96.00;;;;;;5105274;28;20032;-68
2023/09/29 10:04:17;;;;;;;6.13;3.63;;;23.10;96.20;;;;;;5101692;28;20482;-68
2023/09/29 10:06:45;;;;;;;7.55;4.07;;;23.10;95.60;;;;;;5105532;28;20031;-68
2023/09/29 10:09:11;;;;;;;6.47;3.50;;;23.10;95.80;;;;;;5105626;28;20510;-69
2023/09/29 10:11:42;;;;;;;9.68;3.75;;;23.10;96.10;;;;;;5104791;28;20031;-68
2023/09/29 10:14:08;;;;;;;5.10;3.78;;;23.10;96.00;;;;;;5096752;28;20032;-68
2023/09/29 10:16:35;;;;;;;5.60;3.80;;;23.10;95.80;;;;;;5104066;28;20077;-69
2023/09/29 10:19:12;;;;;;;4.70;3.72;;;23.00;96.00;;;;;;5102761;28;20522;-69
2023/09/29 10:21:43;;;;;;;9.95;3.40;;;23.10;95.50;;;;;;5101869;28;20069;-69
2023/09/29 10:24:13;;;;;;;4.65;3.22;;;23.10;95.60;;;;;;5097229;28;20042;-68
2023/09/29 10:26:47;;;;;;;5.05;3.40;;;23.10;95.60;;;;;;5105524;28;20403;-69
2023/09/29 10:29:24;;;;;;;3.97;3.55;;;23.20;95.60;;;;;;5100380;28;20028;-69
2023/09/29 10:31:50;;;;;;;4.68;3.50;;;23.20;95.60;;;;;;5104910;28;20491;-69
2023/09/29 10:34:22;;;;;;;4.57;3.33;;;23.20;95.40;;;;;;5104992;28;20051;-69
2023/09/29 10:36:55;;;;;;;6.72;3.63;;;23.20;95.20;;;;;;5103552;28;20040;-69
2023/09/29 10:39:29;;;;;;;4.05;3.15;;;23.20;95.20;;;;;;5105209;28;20043;-68
2023/09/29 10:42:25;;;;;;;5.03;3.72;;;23.20;95.10;;;;;;5104851;28;20035;-69
2023/09/29 10:44:55;;;;;;;;;;;23.20;95.00;;;;;;5103691;28;20493;-69
2023/09/29 10:47:34;;;;;;;6.45;3.55;;;23.20;95.10;;;;;;5104916;28;20406;-69
2023/09/29 10:50:09;;;;;;;5.63;3.42;;;23.20;95.30;;;;;;5104721;28;20070;-69
2023/09/29 10:52:35;;;;;;;4.68;3.60;;;23.20;95.20;;;;;;5100774;28;20039;-69
2023/09/29 10:55:04;;;;;;;3.75;3.05;;;23.20;95.20;;;;;;5097316;28;20032;-69
2023/09/29 10:57:30;;;;;;;5.22;3.17;;;23.20;95.40;;;;;;5105131;28;20122;-69
2023/09/29 11:00:02;;;;;;;6.97;3.75;;;23.20;95.80;;;;;;5104835;28;20068;-69
2023/09/29 11:02:37;;;;;;;7.05;3.60;;;23.30;95.60;;;;;;5104959;28;20083;-69
2023/09/29 11:05:05;;;;;;;5.43;3.40;;;23.20;95.50;;;;;;5100406;28;20027;-68
2023/09/29 11:07:52;;;;;;;4.82;3.42;;;23.20;95.60;;;;;;5103264;28;20131;-69
2023/09/29 11:10:18;;;;;;;4.53;2.88;;;23.20;95.50;;;;;;5099806;28;20028;-69
2023/09/29 11:12:48;;;;;;;4.55;3.20;;;23.20;95.70;;;;;;5100885;28;20031;-69
2023/09/29 11:15:15;;;;;;;4.55;3.42;;;23.20;95.60;;;;;;5104773;28;20032;-69
2023/09/29 11:17:49;;;;;;;3.83;2.95;;;23.20;95.40;;;;;;5104392;28;20118;-69
2023/09/29 11:20:27;;;;;;;4.80;3.67;;;23.20;95.40;;;;;;5103465;28;20720;-69
2023/09/29 11:23:11;;;;;;;5.38;3.53;;;23.20;95.50;;;;;;5102839;28;20031;-69
2023/09/29 11:25:50;;;;;;;4.70;3.03;;;23.30;95.40;;;;;;5101655;28;20758;-69
2023/09/29 11:28:17;;;;;;;4.20;3.20;;;23.30;95.60;;;;;;5101792;28;20027;-68
2023/09/29 11:30:44;;;;;;;4.10;3.15;;;23.40;95.40;;;;;;5108323;28;20839;-69
2023/09/29 11:33:11;;;;;;;5.13;3.38;;;23.50;95.00;;;;;;5107900;28;20032;-69
2023/09/29 11:35:37;;;;;;;6.57;3.70;;;23.50;94.90;;;;;;5108370;28;20452;-69
2023/09/29 11:38:05;;;;;;;4.90;3.58;;;23.50;94.70;;;;;;5107045;28;20039;-69
2023/09/29 11:40:31;;;;;;;11.57;3.85;;;23.60;94.20;;;;;;5108339;28;20043;-69
2023/09/29 11:42:56;;;;;;;8.38;3.30;;;23.60;94.40;;;;;;5108261;28;20104;-69
2023/09/29 11:45:22;;;;;;;6.53;3.38;;;23.60;94.50;;;;;;5107948;28;20036;-69
2023/09/29 11:47:48;;;;;;;5.82;3.55;;;23.60;94.80;;;;;;5107924;28;20023;-68
2023/09/29 11:50:14;;;;;;;5.68;3.45;;;23.60;94.40;;;;;;5101926;28;20040;-69
2023/09/29 11:52:43;;;;;;;4.28;3.42;;;23.70;94.60;;;;;;5107901;27;20058;-69
2023/09/29 11:55:11;;;;;;;4.82;3.50;;;23.70;94.90;;;;;;5098644;28;20028;-69
2023/09/29 11:57:40;;;;;;;7.32;4.10;;;23.60;94.90;;;;;;5107968;28;20130;-69
2023/09/29 12:00:08;;;;;;;4.90;3.50;;;23.70;94.60;;;;;;5105281;28;20055;-69
2023/09/29 12:02:36;;;;;;;5.80;3.58;;;23.70;94.30;;;;;;5107903;28;20035;-69
2023/09/29 12:05:04;;;;;;;4.82;3.10;;;23.60;94.40;;;;;;5107602;28;20031;-69
2023/09/29 12:07:31;;;;;;;6.65;3.40;;;23.60;94.50;;;;;;5103660;28;20533;-69
2023/09/29 12:09:58;;;;;;;6.28;3.83;;;23.50;94.80;;;;;;5104593;28;20057;-69
2023/09/29 12:12:25;;;;;;;6.43;3.72;;;23.50;94.80;;;;;;5107276;28;20027;-69
2023/09/29 12:14:52;;;;;;;6.38;3.83;;;23.50;94.80;;;;;;5107533;28;20059;-69
2023/09/29 12:17:18;;;;;;;6.03;3.88;;;23.40;94.80;;;;;;5107566;28;20031;-69
2023/09/29 12:19:44;;;;;;;7.00;3.58;;;23.40;95.10;;;;;;5107157;28;20044;-69
2023/09/29 12:22:10;;;;;;;4.93;3.80;;;23.40;95.60;;;;;;5107528;28;20058;-69
2023/09/29 12:24:35;;;;;;;5.82;3.45;;;23.40;95.40;;;;;;5107079;27;20055;-68
2023/09/29 12:27:01;;;;;;;8.57;3.67;;;23.30;95.40;;;;;;5107387;28;20027;-68
2023/09/29 12:29:29;;;;;;;5.15;3.67;;;23.40;95.40;;;;;;5104982;28;20111;-69
2023/09/29 12:31:55;;;;;;;5.25;3.70;;;23.30;96.00;;;;;;5106510;28;20042;-69
2023/09/29 12:34:21;;;;;;;4.75;3.20;;;23.20;96.30;;;;;;5106647;28;20587;-68
2023/09/29 12:36:46;;;;;;;5.05;4.00;;;23.20;97.00;;;;;;5104227;28;20114;-68
2023/09/29 12:39:12;;;;;;;4.65;3.53;;;23.20;97.60;;;;;;5103138;28;20145;-68
2023/09/29 12:41:40;;;;;;;6.22;3.75;;;23.20;97.70;;;;;;5107139;28;20067;-69
2023/09/29 12:44:06;;;;;;;5.00;3.40;;;23.20;98.00;;;;;;5098633;28;20020;-68
2023/09/29 12:46:32;;;;;;;4.45;3.33;;;23.20;98.10;;;;;;5107246;28;20062;-68